Time;durP1;ratioP1;P1;durP2;ratioP2;P2;SDS_P1;SDS_P2;PMS_P1;PMS_P2;Temp;Humidity;BMP_temperature;BMP_pressure;BME280_temperature;BME280_humidity;BME280_pressure;Samples;Min_cycle;Max_cycle;Signal;HPM_P1;HPM_P2
2023/09/24 00:02:14;;;;;;;1.83;0.90;;;14.50;83.40;;;;;;4955023;28;20216;-62
2023/09/24 00:04:42;;;;;;;1.55;1.00;;;14.40;83.20;;;;;;4955135;28;20040;-62
2023/09/24 00:07:07;;;;;;;1.13;1.00;;;14.40;83.10;;;;;;4956080;28;20031;-61
2023/09/24 00:09:33;;;;;;;1.02;0.93;;;14.40;83.40;;;;;;4955846;28;20054;-62
2023/09/24 00:11:59;;;;;;;1.00;0.90;;;14.40;83.40;;;;;;4953025;28;20035;-62
2023/09/24 00:14:26;;;;;;;1.42;0.95;;;14.40;83.40;;;;;;4954038;28;20058;-62
2023/09/24 00:16:52;;;;;;;1.15;1.02;;;14.40;83.30;;;;;;4954797;28;20047;-62
2023/09/24 00:19:17;;;;;;;1.00;1.00;;;14.40;83.20;;;;;;4953380;28;20090;-62
2023/09/24 00:21:43;;;;;;;1.35;1.25;;;14.40;83.00;;;;;;4954685;28;20039;-62
2023/09/24 00:24:10;;;;;;;1.15;1.05;;;14.40;82.70;;;;;;4955415;28;20098;-61
2023/09/24 00:26:35;;;;;;;1.42;1.00;;;14.40;82.60;;;;;;4953984;28;20110;-62
2023/09/24 00:29:02;;;;;;;1.17;0.93;;;14.30;82.80;;;;;;4955566;28;20130;-62
2023/09/24 00:31:27;;;;;;;1.48;0.98;;;14.30;82.80;;;;;;4954406;28;20122;-61
2023/09/24 00:33:53;;;;;;;1.73;1.05;;;14.30;82.80;;;;;;4955474;28;20110;-62
2023/09/24 00:36:19;;;;;;;1.17;0.90;;;14.30;82.60;;;;;;4954074;28;20034;-62
2023/09/24 00:38:45;;;;;;;1.33;1.00;;;14.20;82.40;;;;;;4955310;28;20027;-62
2023/09/24 00:41:10;;;;;;;1.83;1.10;;;14.20;82.40;;;;;;4956731;28;20039;-61
2023/09/24 00:43:36;;;;;;;0.98;0.90;;;14.20;82.30;;;;;;4954683;28;20042;-63
2023/09/24 00:46:05;;;;;;;1.20;1.08;;;14.20;82.30;;;;;;4953904;28;20058;-63
2023/09/24 00:48:32;;;;;;;1.20;1.10;;;14.20;82.60;;;;;;4953374;28;20027;-62
2023/09/24 00:51:00;;;;;;;0.75;0.73;;;14.10;82.60;;;;;;4954735;28;20340;-62
2023/09/24 00:53:33;;;;;;;0.98;0.90;;;14.10;82.70;;;;;;4953316;28;20118;-62
2023/09/24 00:55:59;;;;;;;0.93;0.85;;;14.10;83.00;;;;;;4948511;28;20023;-62
2023/09/24 00:58:25;;;;;;;1.90;0.82;;;14.10;82.70;;;;;;4957126;28;20061;-61
2023/09/24 01:00:53;;;;;;;1.00;0.88;;;14.20;82.50;;;;;;4956606;28;20503;-62
2023/09/24 01:03:22;;;;;;;0.95;0.75;;;14.10;82.00;;;;;;4956056;28;20094;-62
2023/09/24 01:05:49;;;;;;;1.13;0.70;;;14.10;81.80;;;;;;4958101;28;20027;-62
2023/09/24 01:08:17;;;;;;;0.88;0.80;;;14.00;81.80;;;;;;4958784;28;20568;-62
2023/09/24 01:10:47;;;;;;;2.45;0.90;;;13.90;81.70;;;;;;4956174;28;20036;-61
2023/09/24 01:13:20;;;;;;;1.50;1.00;;;13.90;81.70;;;;;;4956886;28;20560;-62
2023/09/24 01:15:50;;;;;;;1.30;0.80;;;13.90;81.70;;;;;;4959043;28;20035;-62
2023/09/24 01:18:20;;;;;;;1.65;1.00;;;13.80;81.90;;;;;;4958678;28;20676;-62
2023/09/24 01:20:47;;;;;;;1.08;0.80;;;13.80;82.00;;;;;;4956522;28;20126;-62
2023/09/24 01:23:16;;;;;;;0.90;0.90;;;13.70;81.90;;;;;;4957491;28;20136;-62
2023/09/24 01:25:44;;;;;;;0.95;0.75;;;13.70;81.80;;;;;;4958296;28;20030;-62
2023/09/24 01:28:10;;;;;;;1.70;0.80;;;13.70;81.70;;;;;;4957750;28;20447;-62
2023/09/24 01:30:38;;;;;;;0.77;0.77;;;13.70;81.80;;;;;;4957715;28;20054;-62
2023/09/24 01:33:04;;;;;;;0.80;0.77;;;13.70;82.00;;;;;;4958774;28;20554;-62
2023/09/24 01:35:33;;;;;;;1.00;0.90;;;13.60;82.10;;;;;;4958355;28;20513;-62
2023/09/24 01:38:06;;;;;;;0.95;0.85;;;13.60;81.90;;;;;;4956720;28;20113;-62
2023/09/24 01:40:33;;;;;;;0.73;0.73;;;13.60;81.60;;;;;;4956589;28;20535;-62
2023/09/24 01:43:01;;;;;;;0.82;0.80;;;13.60;81.50;;;;;;4958568;28;20027;-63
2023/09/24 01:45:28;;;;;;;2.95;0.77;;;13.50;81.50;;;;;;4957834;28;20035;-62
2023/09/24 01:47:54;;;;;;;0.90;0.73;;;13.60;81.50;;;;;;4958667;28;20072;-62
2023/09/24 01:50:20;;;;;;;1.00;0.90;;;13.50;81.20;;;;;;4956985;28;20154;-62
2023/09/24 01:52:46;;;;;;;0.75;0.70;;;13.40;81.20;;;;;;4956346;28;20588;-63
2023/09/24 01:55:15;;;;;;;0.80;0.80;;;13.40;81.50;;;;;;4957304;28;20035;-62
2023/09/24 01:57:44;;;;;;;2.25;1.00;;;13.40;81.70;;;;;;4953809;28;20556;-62
2023/09/24 02:00:11;;;;;;;1.65;1.00;;;13.40;81.70;;;;;;4953222;28;20574;-62
2023/09/24 02:02:38;;;;;;;2.58;1.10;;;13.30;81.50;;;;;;4957599;28;20414;-62
2023/09/24 02:05:10;;;;;;;1.10;1.00;;;13.20;81.40;;;;;;4955760;28;20374;-63
2023/09/24 02:07:37;;;;;;;1.10;1.00;;;13.10;81.30;;;;;;4958584;28;20066;-62
2023/09/24 02:10:05;;;;;;;1.27;1.08;;;13.00;81.40;;;;;;4956576;28;20039;-62
2023/09/24 02:12:35;;;;;;;0.85;0.85;;;13.00;81.50;;;;;;4953595;28;20410;-63
2023/09/24 02:15:10;;;;;;;1.00;0.80;;;12.90;81.90;;;;;;4956133;28;20498;-62
2023/09/24 02:17:41;;;;;;;1.00;0.90;;;12.90;82.20;;;;;;4957672;28;20043;-62
2023/09/24 02:22:57;;;;;;;1.45;0.88;;;12.80;82.20;;;;;;4954745;28;20070;-62
2023/09/24 02:25:32;;;;;;;1.20;0.95;;;12.80;82.00;;;;;;4957340;28;20040;-62
2023/09/24 02:27:58;;;;;;;1.40;0.93;;;12.80;82.40;;;;;;4957410;28;20027;-62
2023/09/24 02:30:29;;;;;;;1.25;0.90;;;12.80;82.20;;;;;;4956773;28;20039;-62
2023/09/24 02:32:56;;;;;;;1.00;0.90;;;12.70;82.20;;;;;;4957671;28;20043;-61
2023/09/24 02:35:23;;;;;;;1.05;0.80;;;12.70;81.90;;;;;;4955668;28;20522;-62
2023/09/24 02:37:50;;;;;;;1.38;1.00;;;12.70;81.80;;;;;;4955945;28;20047;-62
2023/09/24 02:40:27;;;;;;;2.13;0.90;;;12.70;81.80;;;;;;4957437;28;20573;-61
2023/09/24 02:42:55;;;;;;;2.30;1.05;;;12.60;81.60;;;;;;4957059;28;20027;-62
2023/09/24 02:45:22;;;;;;;1.20;1.10;;;12.60;81.70;;;;;;4956685;28;20158;-63
2023/09/24 02:47:51;;;;;;;1.25;1.13;;;12.50;81.70;;;;;;4955673;28;20604;-62
2023/09/24 02:50:23;;;;;;;1.58;1.08;;;12.40;81.90;;;;;;4956734;28;20130;-62
2023/09/24 02:52:53;;;;;;;1.98;0.70;;;12.30;82.20;;;;;;4955998;28;20049;-62
2023/09/24 02:55:19;;;;;;;0.93;0.90;;;12.30;82.30;;;;;;4956385;28;20035;-62
2023/09/24 02:57:52;;;;;;;1.70;0.70;;;12.10;82.40;;;;;;4955579;28;20343;-62
2023/09/24 03:00:42;;;;;;;0.82;0.60;;;12.00;82.60;;;;;;4956074;28;20061;-62
2023/09/24 03:03:05;;;;;;;0.95;0.70;;;11.90;82.90;;;;;;4956433;28;20059;-62
2023/09/24 03:05:32;;;;;;;2.97;0.70;;;11.80;82.90;;;;;;4956155;28;20063;-62
2023/09/24 03:08:02;;;;;;;1.65;0.57;;;11.80;83.20;;;;;;4953240;28;20032;-62
2023/09/24 03:10:30;;;;;;;0.57;0.52;;;11.70;83.70;;;;;;4951527;28;20090;-62
2023/09/24 03:12:56;;;;;;;1.52;0.60;;;11.70;84.00;;;;;;4956688;28;20805;-62
2023/09/24 03:15:23;;;;;;;0.73;0.57;;;11.70;84.30;;;;;;4956447;28;20038;-61
2023/09/24 03:17:50;;;;;;;1.50;0.60;;;11.70;84.30;;;;;;4956768;28;20125;-62
2023/09/24 03:20:19;;;;;;;1.15;0.60;;;11.70;84.10;;;;;;4956371;28;20066;-62
2023/09/24 03:22:48;;;;;;;0.77;0.60;;;11.80;84.00;;;;;;4954584;28;20039;-62
2023/09/24 03:25:18;;;;;;;0.82;0.82;;;11.80;84.00;;;;;;4955342;28;20100;-62
2023/09/24 03:27:45;;;;;;;0.73;0.52;;;11.80;84.00;;;;;;4956741;28;20035;-63
2023/09/24 03:30:13;;;;;;;1.35;0.80;;;11.80;84.00;;;;;;4955094;28;20039;-62
2023/09/24 03:32:40;;;;;;;1.05;0.70;;;11.80;83.60;;;;;;4954775;28;20034;-62
2023/09/24 03:35:08;;;;;;;0.70;0.60;;;11.80;83.30;;;;;;4956895;28;20042;-63
2023/09/24 03:37:37;;;;;;;0.85;0.50;;;11.80;82.90;;;;;;4955252;28;20051;-62
2023/09/24 03:40:14;;;;;;;1.00;0.70;;;11.80;82.70;;;;;;4955498;28;20717;-62
2023/09/24 03:42:40;;;;;;;0.60;0.57;;;11.70;82.70;;;;;;4955967;28;20054;-62
2023/09/24 03:45:09;;;;;;;1.50;0.63;;;11.60;82.80;;;;;;4956059;28;20030;-62
2023/09/24 03:47:36;;;;;;;1.50;0.57;;;11.60;83.00;;;;;;4955699;28;20040;-62
2023/09/24 03:50:03;;;;;;;2.97;0.98;;;11.50;83.20;;;;;;4956128;28;20031;-62
2023/09/24 03:52:30;;;;;;;0.70;0.70;;;11.50;83.40;;;;;;4954081;28;20039;-62
2023/09/24 03:54:59;;;;;;;0.70;0.57;;;11.50;83.60;;;;;;4955678;28;20063;-63
2023/09/24 03:57:27;;;;;;;0.75;0.60;;;11.50;83.90;;;;;;4955434;28;20046;-63
2023/09/24 03:59:54;;;;;;;1.05;0.60;;;11.50;84.10;;;;;;4956027;28;20081;-62
2023/09/24 04:02:20;;;;;;;0.73;0.60;;;11.50;84.10;;;;;;4956765;28;20242;-62
2023/09/24 04:04:46;;;;;;;0.98;0.70;;;11.50;83.80;;;;;;4954346;28;20410;-62
2023/09/24 04:07:12;;;;;;;1.30;0.70;;;11.60;83.30;;;;;;4956582;28;20026;-62
2023/09/24 04:09:38;;;;;;;2.45;0.60;;;11.60;82.90;;;;;;4954548;28;20037;-63
2023/09/24 04:12:04;;;;;;;2.10;0.80;;;11.50;83.00;;;;;;4951400;28;20035;-62
2023/09/24 04:14:30;;;;;;;1.23;0.88;;;11.50;83.10;;;;;;4951599;28;20136;-63
2023/09/24 04:16:56;;;;;;;1.83;1.10;;;11.40;82.90;;;;;;4953886;28;20082;-62
2023/09/24 04:19:24;;;;;;;5.50;1.95;;;11.40;83.10;;;;;;4956769;28;20042;-62
2023/09/24 04:21:50;;;;;;;5.05;1.60;;;11.40;82.90;;;;;;4955991;28;20089;-62
2023/09/24 04:24:16;;;;;;;3.45;1.50;;;11.30;83.20;;;;;;4954907;28;20134;-62
2023/09/24 04:26:41;;;;;;;3.20;1.48;;;11.30;83.40;;;;;;4953983;28;20567;-61
2023/09/24 04:29:07;;;;;;;2.65;1.38;;;11.30;83.50;;;;;;4954551;28;20035;-62
2023/09/24 04:31:32;;;;;;;3.60;1.80;;;11.30;83.90;;;;;;4955921;28;20042;-62
2023/09/24 04:33:58;;;;;;;5.68;2.33;;;11.30;84.10;;;;;;4956057;28;20062;-62
2023/09/24 04:36:24;;;;;;;10.93;3.05;;;11.30;84.10;;;;;;4959031;28;20062;-62
2023/09/24 04:38:49;;;;;;;20.60;7.28;;;11.30;84.00;;;;;;4972652;28;20031;-62
2023/09/24 04:41:15;;;;;;;22.65;7.40;;;11.30;83.80;;;;;;4959349;28;20043;-62
2023/09/24 04:43:42;;;;;;;20.80;7.43;;;11.30;83.50;;;;;;4956916;28;20047;-62
2023/09/24 04:46:08;;;;;;;17.92;6.72;;;11.30;83.40;;;;;;4958238;28;20605;-62
2023/09/24 04:48:35;;;;;;;27.63;9.13;;;11.30;83.30;;;;;;4959783;28;20089;-62
2023/09/24 04:51:01;;;;;;;25.77;8.00;;;11.30;83.60;;;;;;4958589;28;20042;-62
2023/09/24 04:53:27;;;;;;;22.35;7.93;;;11.30;83.50;;;;;;4957789;28;20584;-62
2023/09/24 04:55:52;;;;;;;17.55;6.72;;;11.20;83.20;;;;;;4959286;28;20038;-62
2023/09/24 04:58:18;;;;;;;15.80;5.68;;;11.20;83.30;;;;;;4958084;28;20062;-62
2023/09/24 05:00:44;;;;;;;11.98;4.55;;;11.20;83.70;;;;;;4958176;28;21353;-62
2023/09/24 05:03:09;;;;;;;7.13;3.38;;;11.20;83.80;;;;;;4959594;28;20070;-62
2023/09/24 05:05:35;;;;;;;4.53;2.10;;;11.20;83.30;;;;;;4957808;28;20041;-62
2023/09/24 05:08:03;;;;;;;1.83;1.42;;;11.20;83.00;;;;;;4958272;28;20043;-62
2023/09/24 05:10:29;;;;;;;1.33;1.02;;;11.10;82.90;;;;;;4957497;28;20031;-63
2023/09/24 05:12:55;;;;;;;1.45;1.10;;;11.10;82.90;;;;;;4957403;28;20030;-61
2023/09/24 05:15:20;;;;;;;2.97;1.30;;;11.00;82.70;;;;;;4958457;28;20047;-62
2023/09/24 05:17:46;;;;;;;1.08;0.98;;;11.00;83.00;;;;;;4956612;28;20035;-62
2023/09/24 05:20:13;;;;;;;1.42;1.20;;;10.90;83.40;;;;;;4959055;28;20402;-62
2023/09/24 05:22:39;;;;;;;1.20;1.10;;;11.00;83.80;;;;;;4958627;28;20038;-62
2023/09/24 05:25:05;;;;;;;1.77;1.20;;;11.00;84.00;;;;;;4958006;28;20106;-61
2023/09/24 05:27:33;;;;;;;2.97;1.30;;;11.00;83.80;;;;;;4958671;28;20062;-62
2023/09/24 05:29:58;;;;;;;1.70;1.02;;;11.00;83.70;;;;;;4956288;28;20042;-62
2023/09/24 05:32:24;;;;;;;2.83;1.23;;;11.00;83.60;;;;;;4959015;28;20045;-63
2023/09/24 05:34:53;;;;;;;1.33;0.98;;;11.10;83.80;;;;;;4958952;28;20045;-61
2023/09/24 05:37:19;;;;;;;1.10;1.00;;;11.00;83.70;;;;;;4958709;28;20041;-62
2023/09/24 05:39:45;;;;;;;1.38;1.13;;;11.10;83.40;;;;;;4958290;28;20433;-61
2023/09/24 05:42:10;;;;;;;1.63;1.13;;;11.10;82.90;;;;;;4958015;28;20554;-62
2023/09/24 05:44:36;;;;;;;1.20;1.10;;;11.00;82.60;;;;;;4956996;28;20574;-62
2023/09/24 05:47:06;;;;;;;1.73;1.05;;;11.00;82.40;;;;;;4957376;28;20497;-62
2023/09/24 05:49:32;;;;;;;1.58;1.00;;;11.00;82.20;;;;;;4957942;28;20105;-62
2023/09/24 05:51:58;;;;;;;3.20;1.30;;;10.90;82.30;;;;;;4958585;28;20038;-62
2023/09/24 05:54:23;;;;;;;1.80;1.55;;;10.90;82.70;;;;;;4956978;28;20462;-62
2023/09/24 05:56:49;;;;;;;19.50;6.38;;;10.80;83.00;;;;;;4957273;28;20094;-62
2023/09/24 05:59:15;;;;;;;39.50;9.93;;;10.80;83.30;;;;;;4959751;28;20039;-62
2023/09/24 06:01:42;;;;;;;33.47;7.07;;;10.80;83.60;;;;;;4959057;28;20035;-62
2023/09/24 06:04:08;;;;;;;7.13;4.15;;;10.70;83.80;;;;;;4959216;28;20027;-62
2023/09/24 06:06:33;;;;;;;4.70;3.45;;;10.60;84.00;;;;;;4956701;28;20030;-61
2023/09/24 06:08:59;;;;;;;1.65;1.55;;;10.50;84.30;;;;;;4956611;28;20386;-62
2023/09/24 06:11:24;;;;;;;1.83;1.35;;;10.40;84.80;;;;;;4955574;28;20039;-62
2023/09/24 06:13:50;;;;;;;1.17;1.15;;;10.30;85.20;;;;;;4958628;28;20094;-62
2023/09/24 06:16:16;;;;;;;1.40;1.30;;;10.30;85.60;;;;;;4956821;28;20580;-62
2023/09/24 06:18:41;;;;;;;1.65;1.33;;;10.30;86.10;;;;;;4954130;28;20043;-61
2023/09/24 06:21:09;;;;;;;2.25;1.50;;;10.30;86.50;;;;;;4953403;28;20142;-62
2023/09/24 06:23:34;;;;;;;2.45;1.60;;;10.40;86.80;;;;;;4954226;28;20048;-62
2023/09/24 06:26:00;;;;;;;1.58;1.48;;;10.40;86.80;;;;;;4957293;28;20089;-62
2023/09/24 06:28:26;;;;;;;1.65;1.55;;;10.50;86.80;;;;;;4953720;28;20345;-62
2023/09/24 06:31:03;;;;;;;1.60;1.50;;;10.50;86.40;;;;;;4956482;28;20073;-61
2023/09/24 06:33:29;;;;;;;1.63;1.42;;;10.60;86.80;;;;;;4958016;28;20426;-62
2023/09/24 06:35:55;;;;;;;1.65;1.55;;;10.60;86.70;;;;;;4958446;28;20107;-61
2023/09/24 06:38:21;;;;;;;4.15;1.55;;;10.70;86.90;;;;;;4958238;28;20050;-62
2023/09/24 06:40:54;;;;;;;3.08;1.63;;;10.80;87.10;;;;;;4955658;28;20043;-62
2023/09/24 06:43:20;;;;;;;1.55;1.45;;;10.70;87.00;;;;;;4955859;28;20324;-61
2023/09/24 06:45:45;;;;;;;1.70;1.60;;;10.80;87.10;;;;;;4956824;28;20039;-62
2023/09/24 06:48:11;;;;;;;2.00;1.80;;;10.80;87.20;;;;;;4957202;28;20042;-63
2023/09/24 06:50:37;;;;;;;2.35;1.63;;;10.90;87.30;;;;;;4951898;28;20572;-62
2023/09/24 06:53:03;;;;;;;1.90;1.70;;;11.00;87.40;;;;;;4956843;28;20038;-62
2023/09/24 06:55:29;;;;;;;2.35;1.60;;;11.00;87.40;;;;;;4956251;28;20041;-62
2023/09/24 06:57:54;;;;;;;1.83;1.15;;;11.00;87.40;;;;;;4954973;28;20095;-60
2023/09/24 07:00:21;;;;;;;3.45;1.42;;;11.10;87.40;;;;;;4951903;28;20138;-61
2023/09/24 07:02:46;;;;;;;1.92;1.60;;;11.10;87.60;;;;;;4953638;28;20134;-60
2023/09/24 07:05:12;;;;;;;2.17;1.63;;;11.20;87.90;;;;;;4939263;28;20039;-62
2023/09/24 07:07:37;;;;;;;2.53;1.60;;;11.20;88.00;;;;;;4951517;28;20038;-61
2023/09/24 07:10:09;;;;;;;2.47;1.80;;;11.20;88.00;;;;;;4944475;28;20054;-62
2023/09/24 07:12:37;;;;;;;2.45;1.40;;;11.20;88.30;;;;;;4953735;28;20027;-62
2023/09/24 07:15:03;;;;;;;1.60;1.50;;;11.30;88.90;;;;;;4940294;28;20082;-62
2023/09/24 07:17:28;;;;;;;2.83;1.52;;;11.30;88.20;;;;;;4949984;28;20118;-62
2023/09/24 07:19:54;;;;;;;1.60;1.50;;;11.40;88.50;;;;;;4950510;28;20038;-62
2023/09/24 07:22:25;;;;;;;1.67;1.58;;;11.40;88.50;;;;;;4948526;28;20039;-62
2023/09/24 07:24:51;;;;;;;2.13;1.60;;;11.50;88.60;;;;;;4948437;28;20031;-61
2023/09/24 07:27:16;;;;;;;2.63;1.50;;;11.50;88.80;;;;;;4953653;28;20192;-61
2023/09/24 07:29:43;;;;;;;3.35;1.60;;;11.60;89.00;;;;;;4952959;28;20173;-61
2023/09/24 07:32:11;;;;;;;2.08;1.48;;;11.60;89.00;;;;;;4951554;28;20126;-62
2023/09/24 07:34:40;;;;;;;1.55;1.45;;;11.70;89.20;;;;;;4946559;28;20046;-61
2023/09/24 07:37:08;;;;;;;3.53;1.50;;;11.80;89.30;;;;;;4952862;28;20056;-61
2023/09/24 07:39:34;;;;;;;2.03;1.63;;;11.90;89.50;;;;;;4950912;28;20043;-60
2023/09/24 07:42:00;;;;;;;2.08;1.80;;;12.00;89.50;;;;;;4955318;28;20538;-62
2023/09/24 07:44:27;;;;;;;2.85;1.98;;;12.00;89.40;;;;;;4952855;28;20059;-62
2023/09/24 07:46:53;;;;;;;2.00;1.90;;;12.10;89.50;;;;;;4950228;28;20036;-62
2023/09/24 07:49:19;;;;;;;2.65;2.08;;;12.20;89.50;;;;;;4955104;28;20055;-62
2023/09/24 07:51:45;;;;;;;2.22;2.10;;;12.30;89.50;;;;;;4953622;28;20055;-62
2023/09/24 07:54:11;;;;;;;2.55;2.20;;;12.40;89.70;;;;;;4956039;28;20065;-61
2023/09/24 07:56:43;;;;;;;2.70;2.40;;;12.40;89.90;;;;;;4952866;28;20406;-62
2023/09/24 07:59:12;;;;;;;2.47;2.15;;;12.50;89.70;;;;;;4954622;28;20036;-62
2023/09/24 08:01:37;;;;;;;3.13;2.28;;;12.50;89.70;;;;;;4948553;28;20125;-62
2023/09/24 08:04:03;;;;;;;3.85;2.53;;;12.60;89.90;;;;;;4953620;28;20487;-63
2023/09/24 08:06:29;;;;;;;2.20;2.00;;;12.70;90.00;;;;;;4952874;28;20035;-62
2023/09/24 08:08:56;;;;;;;2.47;2.28;;;12.70;89.90;;;;;;4948669;28;20038;-62
2023/09/24 08:11:22;;;;;;;3.10;2.80;;;12.90;90.00;;;;;;4948185;28;20043;-63
2023/09/24 08:13:49;;;;;;;2.90;2.60;;;12.90;90.10;;;;;;4946751;28;20105;-62
2023/09/24 08:16:14;;;;;;;3.08;2.88;;;13.00;90.10;;;;;;4953172;28;20495;-62
2023/09/24 08:18:40;;;;;;;7.07;3.63;;;13.10;90.10;;;;;;4948944;28;20042;-62
2023/09/24 08:21:07;;;;;;;3.10;2.90;;;13.10;90.40;;;;;;4948919;28;20054;-61
2023/09/24 08:23:32;;;;;;;3.60;3.30;;;13.20;89.80;;;;;;4955839;28;20043;-62
2023/09/24 08:26:00;;;;;;;3.53;3.22;;;13.30;89.50;;;;;;4953144;28;20038;-63
2023/09/24 08:28:25;;;;;;;3.75;3.10;;;13.40;89.20;;;;;;4951443;28;20062;-62
2023/09/24 08:30:51;;;;;;;3.05;2.83;;;13.50;89.20;;;;;;4954065;28;20120;-62
2023/09/24 08:33:17;;;;;;;3.60;2.70;;;13.50;88.80;;;;;;4954701;28;20109;-62
2023/09/24 08:35:43;;;;;;;2.97;2.70;;;13.60;88.60;;;;;;4953355;28;20553;-62
2023/09/24 08:38:09;;;;;;;2.65;2.45;;;13.60;88.30;;;;;;4955024;28;20028;-61
2023/09/24 08:40:35;;;;;;;3.20;2.90;;;13.70;88.10;;;;;;4954076;28;20425;-62
2023/09/24 08:43:08;;;;;;;2.80;2.50;;;13.80;87.80;;;;;;4950618;28;20487;-62
2023/09/24 08:45:34;;;;;;;2.97;2.78;;;13.80;87.80;;;;;;4947706;28;21174;-62
2023/09/24 08:48:01;;;;;;;4.47;3.15;;;13.90;88.10;;;;;;4952514;28;20030;-62
2023/09/24 08:50:30;;;;;;;5.55;2.97;;;13.90;88.10;;;;;;4952627;28;20418;-62
2023/09/24 08:52:58;;;;;;;3.10;2.50;;;14.00;88.10;;;;;;4953774;28;20049;-61
2023/09/24 08:55:23;;;;;;;2.97;2.78;;;14.00;87.80;;;;;;4952622;28;20058;-62
2023/09/24 08:57:50;;;;;;;3.53;2.80;;;14.10;87.90;;;;;;4950892;28;20584;-62
2023/09/24 09:00:16;;;;;;;5.22;2.70;;;14.10;88.00;;;;;;4954735;28;20047;-62
2023/09/24 09:02:45;;;;;;;3.40;2.65;;;14.10;87.90;;;;;;4954848;28;20049;-62
2023/09/24 09:05:20;;;;;;;3.25;2.40;;;14.20;88.00;;;;;;4953353;28;20174;-62
2023/09/24 09:07:56;;;;;;;;;;;14.30;88.30;;;;;;4955387;28;20059;-62
2023/09/24 09:10:27;;;;;;;3.88;2.45;;;14.40;88.80;;;;;;4949950;28;19914;-62
2023/09/24 09:13:03;;;;;;;3.97;2.50;;;14.50;88.30;;;;;;4947034;28;20037;-62
2023/09/24 09:15:29;;;;;;;2.97;2.53;;;14.60;88.20;;;;;;4954422;28;20043;-62
2023/09/24 09:17:55;;;;;;;4.07;2.58;;;14.70;88.10;;;;;;4950034;28;20417;-62
2023/09/24 09:20:41;;;;;;;3.88;2.65;;;14.80;87.80;;;;;;4955302;28;20422;-62
2023/09/24 09:23:15;;;;;;;3.00;2.30;;;14.90;87.00;;;;;;4956002;28;20027;-62
2023/09/24 09:25:53;;;;;;;3.35;2.40;;;15.00;86.80;;;;;;4954271;28;20085;-61
2023/09/24 09:28:38;;;;;;;2.60;1.75;;;15.10;86.70;;;;;;4954912;28;20031;-62
2023/09/24 09:31:11;;;;;;;2.65;1.80;;;15.20;86.30;;;;;;4953711;28;20035;-62
2023/09/24 09:33:39;;;;;;;3.00;1.85;;;15.30;86.20;;;;;;4955376;28;20035;-62
2023/09/24 09:36:28;;;;;;;2.30;1.60;;;15.40;85.90;;;;;;4953567;28;20045;-62
2023/09/24 09:38:57;;;;;;;2.70;1.50;;;15.50;85.10;;;;;;4958271;28;20039;-62
2023/09/24 09:41:24;;;;;;;1.70;1.60;;;15.60;84.80;;;;;;4957388;28;20102;-62
2023/09/24 09:43:52;;;;;;;3.17;1.48;;;15.60;84.30;;;;;;4952970;28;20094;-62
2023/09/24 09:46:20;;;;;;;2.35;1.20;;;15.80;84.30;;;;;;4947635;28;20055;-62
2023/09/24 09:48:58;;;;;;;3.03;1.20;;;15.90;84.00;;;;;;4953305;28;20053;-62
2023/09/24 09:51:25;;;;;;;2.38;1.40;;;16.00;83.30;;;;;;4954772;28;20063;-62
2023/09/24 09:53:54;;;;;;;1.45;1.23;;;16.10;83.10;;;;;;4956773;28;20118;-62
2023/09/24 09:56:23;;;;;;;2.03;1.30;;;16.20;82.20;;;;;;4953843;28;20135;-62
2023/09/24 09:58:51;;;;;;;2.75;1.30;;;16.30;81.90;;;;;;4953753;28;20550;-61
2023/09/24 10:01:20;;;;;;;2.40;1.17;;;16.40;80.80;;;;;;4956097;28;20514;-62
2023/09/24 10:03:50;;;;;;;1.65;0.80;;;16.50;80.10;;;;;;4958531;28;20342;-60
2023/09/24 10:06:15;;;;;;;2.72;0.98;;;16.60;79.40;;;;;;4956147;28;20031;-61
2023/09/24 10:08:41;;;;;;;1.05;0.77;;;16.70;78.80;;;;;;4957937;28;20039;-61
2023/09/24 10:11:12;;;;;;;1.52;0.90;;;16.70;78.70;;;;;;4957075;28;20039;-62
2023/09/24 10:13:49;;;;;;;2.75;1.17;;;16.80;78.10;;;;;;4957917;28;20511;-62
2023/09/24 10:16:27;;;;;;;1.88;0.70;;;16.80;77.20;;;;;;4951056;28;20040;-61
2023/09/24 10:19:04;;;;;;;4.15;0.93;;;16.90;76.80;;;;;;4956924;28;20035;-62
2023/09/24 10:21:31;;;;;;;1.33;0.80;;;16.90;76.80;;;;;;4955649;28;20039;-62
2023/09/24 10:24:17;;;;;;;1.25;0.65;;;17.00;77.30;;;;;;4956696;28;20077;-62
2023/09/24 10:27:06;;;;;;;1.50;0.93;;;17.00;76.00;;;;;;4955086;28;20059;-62
2023/09/24 10:29:44;;;;;;;2.08;1.10;;;17.00;76.10;;;;;;4955234;28;20443;-61
2023/09/24 10:32:17;;;;;;;1.25;0.85;;;17.10;75.70;;;;;;4955318;28;20123;-62
2023/09/24 10:34:54;;;;;;;1.60;0.80;;;17.20;76.30;;;;;;4953343;28;20171;-62
2023/09/24 10:37:29;;;;;;;2.03;0.80;;;17.30;75.40;;;;;;4957470;28;20043;-62
2023/09/24 10:40:09;;;;;;;1.10;0.73;;;17.30;75.20;;;;;;4955341;28;20041;-62
2023/09/24 10:42:40;;;;;;;1.27;0.70;;;17.30;75.20;;;;;;4957431;28;20039;-62
2023/09/24 10:45:12;;;;;;;2.30;0.90;;;17.40;75.30;;;;;;4958574;28;20122;-61
2023/09/24 10:47:41;;;;;;;1.20;0.60;;;17.50;74.70;;;;;;4957897;28;20031;-62
2023/09/24 10:50:11;;;;;;;2.15;0.98;;;17.50;74.40;;;;;;4956321;28;20070;-62
2023/09/24 10:52:58;;;;;;;2.15;0.75;;;17.60;74.70;;;;;;4956622;28;20375;-62
2023/09/24 10:55:29;;;;;;;1.50;0.80;;;17.70;73.60;;;;;;4956314;28;20046;-61
2023/09/24 10:58:00;;;;;;;1.05;0.70;;;17.70;73.20;;;;;;4954225;28;20035;-62
2023/09/24 11:00:27;;;;;;;1.33;0.90;;;17.80;73.70;;;;;;4954609;28;20142;-62
2023/09/24 11:03:03;;;;;;;2.05;0.70;;;17.90;73.20;;;;;;4952341;28;20037;-61
2023/09/24 11:05:33;;;;;;;1.38;0.77;;;17.90;71.90;;;;;;4956788;28;20050;-62
2023/09/24 11:07:58;;;;;;;1.90;0.60;;;17.90;72.10;;;;;;4953569;28;20469;-62
2023/09/24 11:10:26;;;;;;;2.28;0.60;;;18.00;72.00;;;;;;4956406;28;20142;-62
2023/09/24 11:13:02;;;;;;;3.22;0.60;;;18.10;71.70;;;;;;4951546;28;20042;-62
2023/09/24 11:15:33;;;;;;;1.95;0.68;;;18.20;71.40;;;;;;4951206;28;20039;-62
2023/09/24 11:17:59;;;;;;;2.05;0.75;;;18.20;71.40;;;;;;4957304;28;20030;-62
2023/09/24 11:20:31;;;;;;;0.80;0.55;;;18.30;71.10;;;;;;4949864;28;20034;-62
2023/09/24 11:23:11;;;;;;;1.10;0.80;;;18.40;70.40;;;;;;4948928;28;20039;-62
2023/09/24 11:25:45;;;;;;;1.65;0.60;;;18.40;69.30;;;;;;4951597;28;20039;-61
2023/09/24 11:28:11;;;;;;;1.08;0.55;;;18.50;69.40;;;;;;4955212;28;20061;-62
2023/09/24 11:30:42;;;;;;;0.98;0.50;;;18.60;69.50;;;;;;4953704;28;20061;-61
2023/09/24 11:33:16;;;;;;;1.67;0.50;;;18.60;68.30;;;;;;4955130;28;20515;-62
2023/09/24 11:35:42;;;;;;;1.67;0.68;;;18.70;68.50;;;;;;4953732;28;20035;-62
2023/09/24 11:38:08;;;;;;;1.55;0.50;;;18.80;68.80;;;;;;4954034;28;20043;-61
2023/09/24 11:40:38;;;;;;;1.08;0.60;;;18.80;68.30;;;;;;4953812;28;20039;-62
2023/09/24 11:43:10;;;;;;;2.17;0.60;;;18.80;67.80;;;;;;4950298;28;20232;-62
2023/09/24 11:45:46;;;;;;;0.85;0.45;;;18.80;67.40;;;;;;4949782;28;20082;-62
2023/09/24 11:48:26;;;;;;;0.75;0.50;;;18.90;67.60;;;;;;4953499;28;20046;-62
2023/09/24 11:50:53;;;;;;;2.55;0.65;;;18.90;66.80;;;;;;4953212;28;20101;-62
2023/09/24 11:53:20;;;;;;;0.80;0.30;;;18.90;67.30;;;;;;4952420;28;20027;-62
2023/09/24 11:55:57;;;;;;;1.08;0.43;;;18.90;66.70;;;;;;4953589;28;20051;-62
2023/09/24 11:58:26;;;;;;;0.77;0.50;;;18.90;66.40;;;;;;4953207;28;20089;-62
2023/09/24 12:00:58;;;;;;;0.98;0.40;;;18.90;66.40;;;;;;4952482;28;20462;-62
2023/09/24 12:03:25;;;;;;;1.20;0.60;;;19.00;66.30;;;;;;4951486;28;20035;-62
2023/09/24 12:05:53;;;;;;;1.63;0.60;;;19.00;65.70;;;;;;4952847;28;20102;-62
2023/09/24 12:08:28;;;;;;;0.75;0.65;;;19.10;66.10;;;;;;4948862;28;20197;-62
2023/09/24 12:10:54;;;;;;;0.77;0.47;;;19.10;65.90;;;;;;4950051;28;20038;-62
2023/09/24 12:13:20;;;;;;;1.60;0.60;;;19.10;66.30;;;;;;4947281;28;20031;-60
2023/09/24 12:15:46;;;;;;;1.25;0.50;;;19.20;65.20;;;;;;4950913;28;20039;-62
2023/09/24 12:18:12;;;;;;;1.50;0.40;;;19.20;65.30;;;;;;4954678;28;20043;-63
2023/09/24 12:20:40;;;;;;;0.93;0.45;;;19.20;65.40;;;;;;4953448;28;20082;-62
2023/09/24 12:23:09;;;;;;;1.45;0.60;;;19.30;65.20;;;;;;4951855;28;20406;-62
2023/09/24 12:25:36;;;;;;;1.08;0.50;;;19.30;64.60;;;;;;4951575;28;20032;-62
2023/09/24 12:28:06;;;;;;;1.50;0.70;;;19.30;64.40;;;;;;4952316;28;20462;-62
2023/09/24 12:30:32;;;;;;;1.20;0.50;;;19.40;64.10;;;;;;4950334;28;20090;-62
2023/09/24 12:33:00;;;;;;;1.23;0.40;;;19.50;63.40;;;;;;4953159;28;20303;-62
2023/09/24 12:35:26;;;;;;;0.55;0.30;;;19.50;62.20;;;;;;4947284;28;20059;-63
2023/09/24 12:37:55;;;;;;;0.77;0.38;;;19.50;62.20;;;;;;4949799;28;20561;-62
2023/09/24 12:40:25;;;;;;;0.93;0.40;;;19.50;62.20;;;;;;4968380;28;20039;-62
2023/09/24 12:42:51;;;;;;;1.13;0.40;;;19.50;62.00;;;;;;4955612;28;20090;-62
2023/09/24 12:45:19;;;;;;;0.93;0.40;;;19.50;62.60;;;;;;4949558;28;20150;-62
2023/09/24 12:47:45;;;;;;;0.95;0.40;;;19.50;61.70;;;;;;4954865;28;20039;-62
2023/09/24 12:50:17;;;;;;;1.27;0.50;;;19.50;61.50;;;;;;4952641;28;20054;-62
2023/09/24 12:52:45;;;;;;;0.88;0.50;;;19.50;61.50;;;;;;4956897;28;20036;-62
2023/09/24 12:55:12;;;;;;;2.42;0.68;;;19.50;61.50;;;;;;4956021;28;20519;-63